createdAt,value
2019-06-26T00:00:50.836Z,51.30
2019-06-26T00:03:19.670Z,51.80
2019-06-26T00:05:48.424Z,51.90
2019-06-26T00:08:17.240Z,52.60
2019-06-26T00:10:46.063Z,53.00
2019-06-26T00:13:25.550Z,53.30
2019-06-26T00:15:45.421Z,53.80
2019-06-26T00:18:14.233Z,53.90
2019-06-26T00:20:42.974Z,54.00
2019-06-26T00:23:11.798Z,54.20
2019-06-26T00:25:40.474Z,54.40
2019-06-26T00:28:09.344Z,54.30
2019-06-26T00:30:38.048Z,55.20
2019-06-26T00:33:06.817Z,54.60
2019-06-26T00:35:35.559Z,54.90
2019-06-26T00:38:04.383Z,54.80
2019-06-26T00:40:33.480Z,54.70
2019-06-26T00:43:02.290Z,55.20
2019-06-26T00:45:31.176Z,55.20
2019-06-26T00:48:00.000Z,55.20
2019-06-26T00:50:28.797Z,55.30
2019-06-26T00:52:57.677Z,55.40
2019-06-26T00:55:26.452Z,55.30
2019-06-26T00:57:56.180Z,55.70
2019-06-26T01:00:25.625Z,57.40
2019-06-26T01:02:54.298Z,56.20
2019-06-26T01:05:23.157Z,56.10
2019-06-26T01:07:51.886Z,56.60
2019-06-26T01:10:22.202Z,57.00
2019-06-26T01:12:52.556Z,57.20
2019-06-26T01:15:21.427Z,57.20
2019-06-26T01:17:50.392Z,57.20
2019-06-26T01:20:19.324Z,57.30
2019-06-26T01:22:48.211Z,57.40
2019-06-26T01:25:17.831Z,57.40
2019-06-26T01:27:45.726Z,57.60
2019-06-26T01:30:14.961Z,58.50
2019-06-26T01:32:43.711Z,58.20
2019-06-26T01:35:13.220Z,58.20
2019-06-26T01:37:42.065Z,58.60
2019-06-26T01:40:30.175Z,58.40
2019-06-26T01:42:58.986Z,58.60
2019-06-26T01:45:27.734Z,58.70
2019-06-26T01:47:58.233Z,59.20
2019-06-26T01:50:26.939Z,59.10
2019-06-26T01:52:55.735Z,59.40
2019-06-26T01:55:26.311Z,59.50
2019-06-26T01:57:55.074Z,59.40
2019-06-26T02:00:24.919Z,59.50
2019-06-26T02:02:55.584Z,58.80
2019-06-26T02:05:24.134Z,59.70
2019-06-26T02:07:52.970Z,60.30
2019-06-26T02:10:21.998Z,60.60
2019-06-26T02:12:50.750Z,60.70
2019-06-26T02:15:19.769Z,61.40
2019-06-26T02:17:48.591Z,61.20
2019-06-26T02:20:17.423Z,61.60
2019-06-26T02:22:49.423Z,61.60
2019-06-26T02:25:16.801Z,61.90
2019-06-26T02:27:45.565Z,62.20
2019-06-26T02:30:15.197Z,62.20
2019-06-26T02:32:44.100Z,62.40
2019-06-26T02:35:13.261Z,62.90
2019-06-26T02:37:42.038Z,62.60
2019-06-26T02:40:30.156Z,62.70
2019-06-26T02:42:58.912Z,62.60
2019-06-26T02:45:27.722Z,63.00
2019-06-26T02:47:56.473Z,63.10
2019-06-26T02:50:25.228Z,63.60
2019-06-26T02:52:55.211Z,63.30
2019-06-26T02:55:24.040Z,63.10
2019-06-26T02:57:53.813Z,63.50
2019-06-26T03:00:21.944Z,62.80
2019-06-26T03:02:50.700Z,63.80
2019-06-26T03:05:19.475Z,63.00
2019-06-26T03:07:48.226Z,62.90
2019-06-26T03:10:17.136Z,63.10
2019-06-26T03:12:45.968Z,62.70
2019-06-26T03:15:15.066Z,63.30
2019-06-26T03:17:54.634Z,63.20
2019-06-26T03:20:14.607Z,63.30
2019-06-26T03:22:43.356Z,63.10
2019-06-26T03:25:12.455Z,63.60
2019-06-26T03:27:41.144Z,63.70
2019-06-26T03:30:10.268Z,65.20
2019-06-26T03:32:38.998Z,64.20
2019-06-26T03:35:07.844Z,65.00
2019-06-26T03:37:36.594Z,65.20
2019-06-26T03:40:08.294Z,65.20
2019-06-26T03:42:37.175Z,60.70
2019-06-26T03:45:06.870Z,64.90
2019-06-26T03:47:34.775Z,64.90
2019-06-26T03:50:04.993Z,65.30
2019-06-26T03:52:33.736Z,65.10
2019-06-26T03:55:03.671Z,65.30
2019-06-26T03:57:35.262Z,65.40
2019-06-26T04:00:03.702Z,65.20
2019-06-26T04:02:31.565Z,65.20
2019-06-26T04:05:00.306Z,64.00
2019-06-26T04:07:29.156Z,65.00
2019-06-26T04:09:59.206Z,65.00
2019-06-26T04:12:28.052Z,65.20
2019-06-26T04:14:56.870Z,65.90
2019-06-26T04:17:25.700Z,65.70
2019-06-26T04:19:54.530Z,65.30
2019-06-26T04:22:25.142Z,64.00
2019-06-26T04:24:53.845Z,63.40
2019-06-26T04:27:22.738Z,62.90
2019-06-26T04:29:51.719Z,60.80
2019-06-26T04:32:20.570Z,59.60
2019-06-26T04:34:54.552Z,59.20
2019-06-26T04:37:23.552Z,57.80
2019-06-26T04:39:53.602Z,58.00
2019-06-26T04:42:22.352Z,57.50
2019-06-26T04:44:51.207Z,57.30
2019-06-26T04:47:20.073Z,57.00
2019-06-26T04:49:48.878Z,58.00
2019-06-26T04:52:17.652Z,57.70
2019-06-26T04:54:46.476Z,58.10
2019-06-26T04:57:15.292Z,58.40
2019-06-26T04:59:44.130Z,57.70
2019-06-26T05:02:12.858Z,57.60
2019-06-26T05:04:41.715Z,57.00
2019-06-26T05:07:10.532Z,57.40
2019-06-26T05:09:40.523Z,57.50
2019-06-26T05:12:09.217Z,56.00
2019-06-26T05:14:37.976Z,55.20
2019-06-26T05:17:06.738Z,53.00
2019-06-26T05:19:35.628Z,53.30
2019-06-26T05:22:04.577Z,54.40
2019-06-26T05:24:33.521Z,55.50
2019-06-26T05:27:02.268Z,55.50
2019-06-26T05:29:31.098Z,54.80
2019-06-26T05:31:59.984Z,54.60
2019-06-26T05:34:28.731Z,54.30
2019-06-26T05:36:59.464Z,54.20
2019-06-26T05:39:28.165Z,53.90
2019-06-26T05:41:56.996Z,54.40
2019-06-26T05:44:25.752Z,55.20
2019-06-26T05:46:54.712Z,55.60
2019-06-26T05:49:23.494Z,56.20
2019-06-26T05:51:52.323Z,56.20
2019-06-26T05:54:21.019Z,56.70
2019-06-26T05:56:49.933Z,55.40
2019-06-26T05:59:18.717Z,55.20
2019-06-26T06:01:47.437Z,54.80
2019-06-26T06:04:16.127Z,53.90
2019-06-26T06:06:45.046Z,53.10
2019-06-26T06:09:13.843Z,53.00
2019-06-26T06:11:42.686Z,52.90
2019-06-26T06:14:11.421Z,54.00
2019-06-26T06:16:47.281Z,54.80
2019-06-26T06:19:10.867Z,54.70
2019-06-26T06:21:39.659Z,54.20
2019-06-26T06:24:08.522Z,55.30
2019-06-26T06:26:37.438Z,57.70
2019-06-26T06:29:06.201Z,55.10
2019-06-26T06:31:35.032Z,54.00
2019-06-26T06:34:03.744Z,53.30
2019-06-26T06:36:32.547Z,53.60
2019-06-26T06:39:01.303Z,53.50
2019-06-26T06:41:31.991Z,54.50
2019-06-26T06:44:02.327Z,55.00
2019-06-26T06:46:31.284Z,55.60
2019-06-26T06:49:00.105Z,55.80
2019-06-26T06:51:32.110Z,56.70
2019-06-26T06:54:00.962Z,56.80
2019-06-26T06:56:30.389Z,55.60
2019-06-26T06:58:59.207Z,55.90
2019-06-26T07:01:27.960Z,54.00
2019-06-26T07:03:56.759Z,53.90
2019-06-26T07:06:25.587Z,53.10
2019-06-26T07:08:54.419Z,53.60
2019-06-26T07:11:23.153Z,53.40
2019-06-26T07:13:51.984Z,53.00
2019-06-26T07:16:20.830Z,51.50
2019-06-26T07:18:49.653Z,52.40
2019-06-26T07:21:18.512Z,53.50
2019-06-26T07:23:47.317Z,54.60
2019-06-26T07:26:16.128Z,53.90
2019-06-26T07:28:44.904Z,53.60
2019-06-26T07:31:13.650Z,52.80
2019-06-26T07:33:42.558Z,52.40
2019-06-26T07:36:11.410Z,51.90
2019-06-26T07:38:40.380Z,51.00
2019-06-26T07:41:09.032Z,51.80
2019-06-26T07:43:37.771Z,50.90
2019-06-26T07:46:06.693Z,51.40
2019-06-26T07:48:35.504Z,50.40
2019-06-26T07:51:04.185Z,50.00
2019-06-26T07:53:33.090Z,48.60
2019-06-26T07:56:01.780Z,46.70
2019-06-26T07:58:30.646Z,47.10
2019-06-26T08:00:59.415Z,42.60
2019-06-26T08:03:28.259Z,41.30
2019-06-26T08:05:56.949Z,37.90
2019-06-26T08:08:25.625Z,48.80
2019-06-26T08:10:54.375Z,32.40
2019-06-26T08:13:25.192Z,68.80
2019-06-26T08:15:54.090Z,57.70
2019-06-26T08:18:21.992Z,31.50
2019-06-26T08:21:10.614Z,30.20
2019-06-26T08:23:21.137Z,51.10
2019-06-26T08:25:49.927Z,32.90
2019-06-26T08:28:18.607Z,31.90
2019-06-26T08:30:47.379Z,30.60
2019-06-26T08:33:16.121Z,29.40
2019-06-26T08:35:44.864Z,29.80
2019-06-26T08:38:15.631Z,29.90
2019-06-26T08:40:44.052Z,30.30
2019-06-26T08:43:12.862Z,29.70
2019-06-26T08:45:41.625Z,30.20
2019-06-26T08:48:19.233Z,31.60
2019-06-26T08:50:40.807Z,33.40
2019-06-26T08:53:09.529Z,34.10
2019-06-26T08:55:38.308Z,33.30
2019-06-26T08:58:07.193Z,31.50
2019-06-26T09:00:36.087Z,30.10
2019-06-26T09:03:05.356Z,31.60
2019-06-26T09:05:46.895Z,32.90
2019-06-26T09:08:05.637Z,34.40
2019-06-26T09:10:35.220Z,36.80
2019-06-26T09:13:05.044Z,37.10
2019-06-26T09:15:34.104Z,36.60
2019-06-26T09:18:02.856Z,37.10
2019-06-26T09:20:41.762Z,39.60
2019-06-26T09:23:10.611Z,40.00
2019-06-26T09:25:39.358Z,38.60
2019-06-26T09:28:09.877Z,39.70
2019-06-26T09:30:40.445Z,40.60
2019-06-26T09:33:09.243Z,40.60
2019-06-26T09:35:37.991Z,40.60
2019-06-26T09:38:06.741Z,40.10
2019-06-26T09:40:35.552Z,41.50
2019-06-26T09:43:05.446Z,40.60
2019-06-26T09:45:34.143Z,41.10
2019-06-26T09:48:04.827Z,41.70
2019-06-26T09:50:33.354Z,39.90
2019-06-26T09:53:05.199Z,40.70
2019-06-26T09:55:32.571Z,40.70
2019-06-26T09:58:01.321Z,41.00
2019-06-26T10:00:30.881Z,41.40
2019-06-26T10:02:58.821Z,40.80
2019-06-26T10:05:27.596Z,40.20
2019-06-26T10:07:56.367Z,40.10
2019-06-26T10:10:25.167Z,40.20
2019-06-26T10:12:54.001Z,41.30
2019-06-26T10:15:22.831Z,42.30
2019-06-26T10:17:51.648Z,40.90
2019-06-26T10:20:21.117Z,42.40
2019-06-26T10:22:49.136Z,41.10
2019-06-26T10:25:18.047Z,41.20
2019-06-26T10:27:46.917Z,40.90
2019-06-26T10:30:16.371Z,40.80
2019-06-26T10:32:44.272Z,40.50
2019-06-26T10:35:14.306Z,41.80
2019-06-26T10:37:43.142Z,40.60
2019-06-26T10:40:15.972Z,40.40
2019-06-26T10:42:42.769Z,38.60
2019-06-26T10:45:11.911Z,38.40
2019-06-26T10:47:40.890Z,38.80
2019-06-26T10:50:09.809Z,40.00
2019-06-26T10:52:38.722Z,40.10
2019-06-26T10:55:09.381Z,40.90
2019-06-26T10:57:38.125Z,40.60
2019-06-26T11:00:11.448Z,39.80
2019-06-26T11:02:40.277Z,41.10
2019-06-26T11:05:09.707Z,40.30
2019-06-26T11:07:37.675Z,39.70
2019-06-26T11:10:10.023Z,40.50
2019-06-26T11:12:40.741Z,41.10
2019-06-26T11:15:09.438Z,40.10
2019-06-26T11:17:39.182Z,40.80
2019-06-26T11:20:09.740Z,40.00
2019-06-26T11:22:38.585Z,41.20
2019-06-26T11:25:07.926Z,39.30
2019-06-26T11:27:36.782Z,40.10
2019-06-26T11:30:10.881Z,39.40
2019-06-26T11:32:39.616Z,38.80
2019-06-26T11:35:08.842Z,38.30
2019-06-26T11:37:38.687Z,39.10
2019-06-26T11:40:07.987Z,39.20
2019-06-26T11:42:36.921Z,39.90
2019-06-26T11:45:07.928Z,40.20
2019-06-26T11:47:37.073Z,39.00
2019-06-26T11:50:07.697Z,37.90
2019-06-26T11:52:36.545Z,39.60
2019-06-26T11:55:09.588Z,39.30
2019-06-26T11:57:38.344Z,41.80
2019-06-26T12:00:12.456Z,39.80
2019-06-26T12:02:41.210Z,40.90
2019-06-26T12:05:10.441Z,39.30
2019-06-26T12:07:39.197Z,38.10
2019-06-26T12:10:08.769Z,37.30
2019-06-26T12:12:37.648Z,37.20
2019-06-26T12:15:07.588Z,36.50
2019-06-26T12:17:36.513Z,36.80
2019-06-26T12:20:17.879Z,35.60
2019-06-26T12:22:37.348Z,36.70
2019-06-26T12:25:07.012Z,35.40
2019-06-26T12:27:35.880Z,36.60
2019-06-26T12:30:06.625Z,35.60
2019-06-26T12:32:41.844Z,36.20
2019-06-26T12:35:06.653Z,37.60
2019-06-26T12:37:38.038Z,37.90
2019-06-26T12:40:07.204Z,37.10
2019-06-26T12:42:36.059Z,37.90
2019-06-26T12:45:08.781Z,39.00
2019-06-26T12:47:38.515Z,38.60
2019-06-26T12:50:08.530Z,37.60
2019-06-26T12:52:37.201Z,38.90
2019-06-26T12:55:06.724Z,39.10
2019-06-26T12:57:35.662Z,40.20
2019-06-26T13:00:07.229Z,40.50
2019-06-26T13:02:37.853Z,39.90
2019-06-26T13:05:07.249Z,38.60
2019-06-26T13:07:35.178Z,39.30
2019-06-26T13:10:07.529Z,39.90
2019-06-26T13:12:37.072Z,39.70
2019-06-26T13:15:08.386Z,39.80
2019-06-26T13:17:37.144Z,40.20
2019-06-26T13:20:10.070Z,40.20
2019-06-26T13:22:39.027Z,41.10
2019-06-26T13:25:09.500Z,40.30
2019-06-26T13:27:38.456Z,40.40
2019-06-26T13:30:08.210Z,40.20
2019-06-26T13:32:36.882Z,38.80
2019-06-26T13:35:07.000Z,37.40
2019-06-26T13:37:37.592Z,36.80
2019-06-26T13:40:07.367Z,37.20
2019-06-26T13:42:36.279Z,37.20
2019-06-26T13:45:07.164Z,38.00
2019-06-26T13:47:35.958Z,37.90
2019-06-26T13:50:06.660Z,37.80
2019-06-26T13:52:35.403Z,38.80
2019-06-26T13:55:04.624Z,37.70
2019-06-26T13:57:33.322Z,37.40
2019-06-26T14:00:02.148Z,38.60
2019-06-26T14:02:30.889Z,37.10
2019-06-26T14:04:59.690Z,37.70
2019-06-26T14:07:28.310Z,38.20
2019-06-26T14:09:57.068Z,38.00
2019-06-26T14:12:25.732Z,39.10
2019-06-26T14:14:57.837Z,39.00
2019-06-26T14:17:24.948Z,38.90
2019-06-26T14:19:53.697Z,39.30
2019-06-26T14:22:22.401Z,40.50
2019-06-26T14:24:54.133Z,41.10
2019-06-26T14:27:21.620Z,41.20
2019-06-26T14:29:50.443Z,40.60
2019-06-26T14:32:19.199Z,39.50
2019-06-26T14:34:49.899Z,39.80
2019-06-26T14:37:18.335Z,40.20
2019-06-26T14:39:47.160Z,41.50
2019-06-26T14:42:15.841Z,41.40
2019-06-26T14:44:44.700Z,40.90
2019-06-26T14:47:13.415Z,40.90
2019-06-26T14:49:42.163Z,40.40
2019-06-26T14:52:10.911Z,40.00
2019-06-26T14:54:39.601Z,40.70
2019-06-26T14:57:08.361Z,41.70
2019-06-26T14:59:37.038Z,41.80
2019-06-26T15:02:06.282Z,41.80
2019-06-26T15:04:34.938Z,41.60
2019-06-26T15:07:03.678Z,41.90
2019-06-26T15:09:32.497Z,41.60
2019-06-26T15:12:01.300Z,41.30
2019-06-26T15:14:30.049Z,41.70
2019-06-26T15:16:58.939Z,41.10
2019-06-26T15:19:27.666Z,41.30
2019-06-26T15:21:58.820Z,41.20
2019-06-26T15:24:26.838Z,41.10
2019-06-26T15:26:57.151Z,40.60
2019-06-26T15:29:26.088Z,40.40
2019-06-26T15:31:54.859Z,40.80
2019-06-26T15:34:26.193Z,40.60
2019-06-26T15:36:54.416Z,40.00
2019-06-26T15:39:23.162Z,40.30
2019-06-26T15:41:51.989Z,41.30
2019-06-26T15:44:20.929Z,41.00
2019-06-26T15:46:49.971Z,40.60
2019-06-26T15:49:18.744Z,39.70
2019-06-26T15:51:47.497Z,39.70
2019-06-26T15:54:18.340Z,38.70
2019-06-26T15:56:49.101Z,38.60
2019-06-26T15:59:18.717Z,38.10
2019-06-26T16:01:47.504Z,38.10
2019-06-26T16:04:16.174Z,38.00
2019-06-26T16:06:44.970Z,37.50
2019-06-26T16:09:13.773Z,37.20
2019-06-26T16:11:43.928Z,37.10
2019-06-26T16:14:12.749Z,37.00
2019-06-26T16:16:43.124Z,37.60
2019-06-26T16:19:17.200Z,37.50
2019-06-26T16:21:45.831Z,37.40
2019-06-26T16:24:14.702Z,37.40
2019-06-26T16:26:43.455Z,37.70
2019-06-26T16:29:12.208Z,37.60
2019-06-26T16:31:41.067Z,36.80
2019-06-26T16:34:09.823Z,36.40
2019-06-26T16:36:38.748Z,36.20
2019-06-26T16:39:08.315Z,36.40
2019-06-26T16:41:36.497Z,36.00
2019-06-26T16:44:06.033Z,36.10
2019-06-26T16:46:34.154Z,36.20
2019-06-26T16:49:02.957Z,36.20
2019-06-26T16:51:31.800Z,36.80
2019-06-26T16:54:00.480Z,38.30
2019-06-26T16:56:29.234Z,36.90
2019-06-26T16:59:02.616Z,36.90
2019-06-26T17:01:32.397Z,36.60
2019-06-26T17:04:01.085Z,36.30
2019-06-26T17:06:29.832Z,36.90
2019-06-26T17:08:58.717Z,37.00
2019-06-26T17:11:27.621Z,37.50
2019-06-26T17:13:56.463Z,37.90
2019-06-26T17:16:25.283Z,38.60
2019-06-26T17:18:54.115Z,38.10
2019-06-26T17:21:25.200Z,38.30
2019-06-26T17:23:55.838Z,38.60
2019-06-26T17:26:25.628Z,38.80
2019-06-26T17:28:54.555Z,39.10
2019-06-26T17:31:23.297Z,39.30
2019-06-26T17:33:52.056Z,39.30
2019-06-26T17:36:20.913Z,39.70
2019-06-26T17:38:49.807Z,39.90
2019-06-26T17:41:19.758Z,40.10
2019-06-26T17:43:48.608Z,40.10
2019-06-26T17:46:19.119Z,40.30
2019-06-26T17:48:47.928Z,40.40
2019-06-26T17:51:16.747Z,40.50
2019-06-26T17:53:45.557Z,40.80
2019-06-26T17:56:14.601Z,41.00
2019-06-26T17:58:43.336Z,40.90
2019-06-26T18:01:12.174Z,41.20
2019-06-26T18:03:40.929Z,40.80
2019-06-26T18:06:09.767Z,40.80
2019-06-26T18:08:38.617Z,41.40
2019-06-26T18:11:07.422Z,41.10
2019-06-26T18:13:36.238Z,41.50
2019-06-26T18:16:06.159Z,41.70
2019-06-26T18:18:34.979Z,42.00
2019-06-26T18:21:03.791Z,41.90
2019-06-26T18:23:37.734Z,42.00
2019-06-26T18:26:13.008Z,41.40
2019-06-26T18:28:33.644Z,42.00
2019-06-26T18:31:02.805Z,42.50
2019-06-26T18:33:31.650Z,42.90
2019-06-26T18:36:00.572Z,43.50
2019-06-26T18:38:29.335Z,43.70
2019-06-26T18:40:58.362Z,43.60
2019-06-26T18:43:29.221Z,44.40
2019-06-26T18:45:58.135Z,46.10
2019-06-26T18:48:26.949Z,47.60
2019-06-26T18:50:55.801Z,47.00
2019-06-26T18:53:24.655Z,47.90
2019-06-26T18:55:53.674Z,47.00
2019-06-26T18:58:22.419Z,47.60
2019-06-26T19:00:51.199Z,47.40
2019-06-26T19:03:20.053Z,48.10
2019-06-26T19:05:48.869Z,49.10
2019-06-26T19:08:17.573Z,50.70
2019-06-26T19:10:46.318Z,51.50
2019-06-26T19:13:19.945Z,52.20
2019-06-26T19:15:46.517Z,52.70
2019-06-26T19:18:14.564Z,54.20
2019-06-26T19:20:43.406Z,54.80
2019-06-26T19:23:12.437Z,55.40
2019-06-26T19:25:41.300Z,56.00
2019-06-26T19:28:10.126Z,56.90
2019-06-26T19:30:38.989Z,56.40
2019-06-26T19:33:08.477Z,56.90
2019-06-26T19:35:37.362Z,58.00
2019-06-26T19:38:06.152Z,59.20
2019-06-26T19:40:35.048Z,59.60
2019-06-26T19:43:05.199Z,61.50
2019-06-26T19:45:34.045Z,61.90
2019-06-26T19:48:02.951Z,61.70
2019-06-26T19:50:33.763Z,62.80
2019-06-26T19:53:04.104Z,63.60
2019-06-26T19:55:35.375Z,65.10
2019-06-26T19:58:05.323Z,65.20
2019-06-26T20:00:34.174Z,64.80
2019-06-26T20:03:02.973Z,65.00
2019-06-26T20:05:31.793Z,67.50
2019-06-26T20:08:00.480Z,69.10
2019-06-26T20:10:29.517Z,69.90
2019-06-26T20:12:58.428Z,71.00
2019-06-26T20:15:27.119Z,73.10
2019-06-26T20:17:55.970Z,73.50
2019-06-26T20:20:24.788Z,76.90
2019-06-26T20:22:55.128Z,79.00
2019-06-26T20:25:23.898Z,81.30
2019-06-26T20:27:56.877Z,82.60
2019-06-26T20:30:26.116Z,86.30
2019-06-26T20:32:54.919Z,89.10
2019-06-26T20:35:23.840Z,90.20
2019-06-26T20:37:52.704Z,90.00
2019-06-26T20:40:21.682Z,91.10
2019-06-26T20:42:50.616Z,91.10
2019-06-26T20:45:19.355Z,91.30
2019-06-26T20:47:48.208Z,91.80
2019-06-26T20:50:16.976Z,92.40
2019-06-26T20:52:45.859Z,92.60
2019-06-26T20:55:14.698Z,92.60
2019-06-26T20:57:43.565Z,92.50
2019-06-26T21:00:12.708Z,93.50
2019-06-26T21:03:36.340Z,94.40
2019-06-26T21:06:05.209Z,93.50
2019-06-26T21:08:34.078Z,94.40
2019-06-26T21:11:03.005Z,94.70
2019-06-26T21:13:31.809Z,93.50
2019-06-26T21:16:02.041Z,92.90
2019-06-26T21:18:31.994Z,92.70
2019-06-26T21:21:01.028Z,93.20
2019-06-26T21:23:29.894Z,93.70
2019-06-26T21:25:59.777Z,93.50
2019-06-26T21:28:30.578Z,93.80
2019-06-26T21:30:59.446Z,94.30
2019-06-26T21:33:28.194Z,94.70
2019-06-26T21:35:57.058Z,94.70
2019-06-26T21:38:25.907Z,95.60
2019-06-26T21:40:55.801Z,94.70
2019-06-26T21:43:24.582Z,94.70
2019-06-26T21:45:54.503Z,94.10
2019-06-26T21:48:23.415Z,94.70
2019-06-26T21:50:52.234Z,92.50
2019-06-26T21:53:20.986Z,92.50
2019-06-26T21:55:50.398Z,92.10
2019-06-26T21:58:20.068Z,93.40
2019-06-26T22:00:49.163Z,95.90
2019-06-26T22:03:18.070Z,97.10
2019-06-26T22:05:46.871Z,97.10
2019-06-26T22:08:15.766Z,97.70
2019-06-26T22:10:44.530Z,97.40
2019-06-26T22:13:13.285Z,97.40
2019-06-26T22:15:42.234Z,97.70
2019-06-26T22:18:10.974Z,97.70
2019-06-26T22:20:39.818Z,97.20
2019-06-26T22:23:08.646Z,97.80
2019-06-26T22:25:50.438Z,97.00
2019-06-26T22:28:07.871Z,97.50
2019-06-26T22:30:36.695Z,97.20
2019-06-26T22:33:05.518Z,97.40
2019-06-26T22:35:34.411Z,97.10
2019-06-26T22:38:03.240Z,97.10
2019-06-26T22:40:32.068Z,97.70
2019-06-26T22:43:00.744Z,96.80
2019-06-26T22:45:29.586Z,97.40
2019-06-26T22:47:58.268Z,97.80
2019-06-26T22:50:27.180Z,97.90
2019-06-26T22:52:56.074Z,97.50
2019-06-26T22:55:26.568Z,97.70
2019-06-26T22:57:55.366Z,97.60
2019-06-26T23:00:24.205Z,98.00
2019-06-26T23:02:53.089Z,98.10
2019-06-26T23:05:21.836Z,98.20
2019-06-26T23:07:50.890Z,98.50
2019-06-26T23:10:19.969Z,98.80
2019-06-26T23:12:48.797Z,98.40
2019-06-26T23:15:17.859Z,98.60
2019-06-26T23:17:46.708Z,98.70
2019-06-26T23:20:15.561Z,98.80
2019-06-26T23:22:44.329Z,98.40
2019-06-26T23:25:13.180Z,98.90
2019-06-26T23:27:42.091Z,98.80
2019-06-26T23:30:13.825Z,98.70
2019-06-26T23:32:43.822Z,98.60
2019-06-26T23:35:14.174Z,98.90
2019-06-26T23:37:43.113Z,98.80
2019-06-26T23:40:11.980Z,99.10
2019-06-26T23:42:40.775Z,98.90
2019-06-26T23:45:12.175Z,98.40
2019-06-26T23:47:40.979Z,98.30
2019-06-26T23:50:10.030Z,99.00
2019-06-26T23:52:38.982Z,99.80
2019-06-26T23:55:07.865Z,99.90
2019-06-26T23:57:41.427Z,99.90
